Time;durP1;ratioP1;P1;durP2;ratioP2;P2;SDS_P1;SDS_P2;PMS_P1;PMS_P2;Temp;Humidity;BMP_temperature;BMP_pressure;BME280_temperature;BME280_humidity;BME280_pressure;Samples;Min_cycle;Max_cycle;Signal;HPM_P1;HPM_P2
2023/01/24 00:01:18;;;;;;;;;;;2.80;81.90;;;;;;5094305;28;20365;-85
2023/01/24 00:03:44;;;;;;;;;;;2.90;82.20;;;;;;5078421;28;19951;-83
2023/01/24 00:06:09;;;;;;;;;;;2.80;81.90;;;;;;5073484;28;20374;-82
2023/01/24 00:08:35;;;;;;;;;;;2.90;81.90;;;;;;5070860;28;19958;-81
2023/01/24 00:11:01;;;;;;;;;;;2.90;81.80;;;;;;5096015;28;19923;-80
2023/01/24 00:13:27;;;;;;;;;;;2.90;81.60;;;;;;4686077;22;19932;-86
2023/01/24 00:16:01;;;;;;;;;;;2.90;81.50;;;;;;5072140;28;19977;-86
2023/01/24 00:18:26;;;;;;;;;;;2.80;81.70;;;;;;5069370;28;19920;-84
2023/01/24 00:20:51;;;;;;;;;;;2.90;82.00;;;;;;5070070;28;19961;-84
2023/01/24 00:23:17;;;;;;;;;;;2.90;81.40;;;;;;5070082;28;19913;-84
2023/01/24 00:25:42;;;;;;;;;;;3.00;81.30;;;;;;5061484;28;19921;-84
2023/01/24 00:28:08;;;;;;;;;;;2.90;80.90;;;;;;5065779;28;20371;-83
2023/01/24 00:30:33;;;;;;;;;;;2.90;81.20;;;;;;5053843;28;20371;-84
2023/01/24 00:32:59;;;;;;;;;;;3.00;80.80;;;;;;5073995;28;20393;-84
2023/01/24 00:35:24;;;;;;;;;;;2.90;80.90;;;;;;5068691;28;19920;-84
2023/01/24 00:37:50;;;;;;;;;;;3.00;80.90;;;;;;5063628;28;19913;-84
2023/01/24 00:40:15;;;;;;;;;;;2.90;80.90;;;;;;5071081;28;19917;-84
2023/01/24 00:42:41;;;;;;;;;;;2.90;81.20;;;;;;5055642;28;19991;-84
2023/01/24 00:45:06;;;;;;;;;;;2.90;81.60;;;;;;5050714;28;19926;-85
2023/01/24 00:47:32;;;;;;;;;;;3.00;81.20;;;;;;5072684;28;19916;-85
2023/01/24 00:49:57;;;;;;;;;;;3.00;80.90;;;;;;5075307;28;19913;-86
2023/01/24 00:52:22;;;;;;;;;;;2.90;80.90;;;;;;5055451;28;20054;-84
2023/01/24 00:54:48;;;;;;;;;;;2.90;80.80;;;;;;5058486;28;19963;-84
2023/01/24 00:57:13;;;;;;;;;;;2.90;80.80;;;;;;5059027;28;19916;-84
2023/01/24 00:59:41;;;;;;;;;;;2.90;81.10;;;;;;5073891;28;19920;-84
2023/01/24 01:02:07;;;;;;;;;;;2.80;81.00;;;;;;5069424;28;19912;-85
2023/01/24 01:04:32;;;;;;;;;;;2.80;81.30;;;;;;5066869;28;20412;-84
2023/01/24 01:06:58;;;;;;;;;;;2.80;80.90;;;;;;5058189;28;19920;-85
2023/01/24 01:09:23;;;;;;;;;;;2.80;81.30;;;;;;5059407;28;19987;-84
2023/01/24 01:11:49;;;;;;;;;;;2.80;81.50;;;;;;5053139;28;19975;-87
2023/01/24 01:14:14;;;;;;;;;;;2.80;80.80;;;;;;5051207;28;19931;-84
2023/01/24 01:16:40;;;;;;;;;;;2.80;80.30;;;;;;5072324;28;19919;-84
2023/01/24 01:19:05;;;;;;;;;;;2.80;80.70;;;;;;5059947;28;19913;-84
2023/01/24 01:21:31;;;;;;;;;;;2.70;81.40;;;;;;5061281;28;20289;-85
2023/01/24 01:23:56;;;;;;;;;;;2.70;81.60;;;;;;5080813;28;19955;-84
2023/01/24 01:26:22;;;;;;;;;;;2.80;80.50;;;;;;5081280;28;19913;-85
2023/01/24 01:28:48;;;;;;;;;;;2.80;80.40;;;;;;5060919;28;19936;-84
2023/01/24 01:31:13;;;;;;;;;;;2.80;81.10;;;;;;5070689;28;19917;-84
2023/01/24 01:33:39;;;;;;;;;;;2.80;80.80;;;;;;5054194;28;19912;-84
2023/01/24 01:36:05;;;;;;;;;;;2.80;80.80;;;;;;5072695;28;19917;-84
2023/01/24 01:38:30;;;;;;;;;;;2.90;80.70;;;;;;5058690;28;20305;-84
2023/01/24 01:40:56;;;;;;;;;;;2.80;80.40;;;;;;5053966;28;19920;-85
2023/01/24 01:43:22;;;;;;;;;;;2.90;80.00;;;;;;5068404;28;19920;-83
2023/01/24 01:45:49;;;;;;;;;;;2.90;79.80;;;;;;5079057;28;19920;-83
2023/01/24 01:48:33;;;;;;;;;;;2.90;79.30;;;;;;5061964;28;20210;-84
2023/01/24 01:51:05;;;;;;;;;;;2.90;79.30;;;;;;5058323;28;19912;-85
2023/01/24 01:53:35;;;;;;;;;;;2.80;79.90;;;;;;5069968;28;19919;-83
2023/01/24 01:56:04;;;;;;;;;;;2.80;79.70;;;;;;5054656;28;20027;-84
2023/01/24 01:58:30;;;;;;;;;;;2.80;79.50;;;;;;5070790;28;19915;-84
2023/01/24 02:00:55;;;;;;;;;;;2.80;79.70;;;;;;5069042;28;19913;-83
2023/01/24 02:03:37;;;;;;;;;;;2.90;79.40;;;;;;5074497;28;20055;-85
2023/01/24 02:06:17;;;;;;;;;;;2.80;79.40;;;;;;5073177;28;19916;-83
2023/01/24 02:08:43;;;;;;;;;;;2.80;79.60;;;;;;5054225;28;19916;-84
2023/01/24 02:16:01;;;;;;;;;;;2.80;80.10;;;;;;5073355;28;19923;-84
2023/01/24 02:16:38;;;;;;;;;;;2.80;79.80;;;;;;5072329;28;19913;-84
2023/01/24 02:19:04;;;;;;;;;;;2.80;79.60;;;;;;5052579;28;19923;-84
2023/01/24 02:21:30;;;;;;;;;;;2.80;79.70;;;;;;5071743;28;20003;-85
2023/01/24 02:24:01;;;;;;;;;;;2.80;79.90;;;;;;5071538;28;19952;-84
2023/01/24 02:26:27;;;;;;;;;;;2.80;80.10;;;;;;5071392;28;19913;-83
2023/01/24 02:28:58;;;;;;;;;;;2.80;80.00;;;;;;5053724;28;20145;-83
2023/01/24 02:31:23;;;;;;;;;;;2.80;79.50;;;;;;5062315;28;19924;-85
2023/01/24 02:33:49;;;;;;;;;;;2.80;79.70;;;;;;5069839;28;19913;-84
2023/01/24 02:36:18;;;;;;;;;;;2.80;79.70;;;;;;5057280;28;19920;-85
2023/01/24 02:38:48;;;;;;;;;;;2.80;79.70;;;;;;5054663;28;22673;-85
2023/01/24 02:41:13;;;;;;;;;;;2.70;80.10;;;;;;5054970;28;19916;-84
2023/01/24 02:43:43;;;;;;;;;;;2.70;80.40;;;;;;5074393;28;20414;-84
2023/01/24 02:46:08;;;;;;;;;;;2.70;80.60;;;;;;5070852;28;20403;-85
2023/01/24 02:48:34;;;;;;;;;;;2.70;79.90;;;;;;5077201;28;19956;-83
2023/01/24 02:53:43;;;;;;;;;;;2.80;79.10;;;;;;5065588;28;19928;-85
2023/01/24 02:59:07;;;;;;;;;;;2.70;80.30;;;;;;5040173;28;19920;-83
2023/01/24 03:01:32;;;;;;;;;;;2.70;80.40;;;;;;5076532;28;20174;-82
2023/01/24 03:03:58;;;;;;;;;;;2.70;80.10;;;;;;5056117;28;19913;-83
2023/01/24 03:06:23;;;;;;;;;;;2.70;79.90;;;;;;5068247;28;19917;-83
2023/01/24 03:08:48;;;;;;;;;;;2.80;79.40;;;;;;5057642;28;20055;-83
2023/01/24 03:11:14;;;;;;;;;;;2.80;79.40;;;;;;5070797;28;19916;-82
2023/01/24 03:35:34;;;;;;;;;;;2.70;80.30;;;;;;5070543;28;19985;-84
2023/01/24 03:40:43;;;;;;;;;;;2.60;80.20;;;;;;5073656;28;20320;-83
2023/01/24 03:43:09;;;;;;;;;;;2.70;79.70;;;;;;5054714;28;20014;-83
2023/01/24 03:45:35;;;;;;;;;;;2.70;79.40;;;;;;5069106;28;19913;-84
2023/01/24 03:48:02;;;;;;;;;;;2.60;80.00;;;;;;5074162;28;20007;-83
2023/01/24 03:53:13;;;;;;;;;;;2.60;80.30;;;;;;5069281;28;19923;-83
2023/01/24 03:55:39;;;;;;;;;;;2.70;79.80;;;;;;5082085;28;19935;-83
2023/01/24 03:58:05;;;;;;;;;;;2.70;80.10;;;;;;5073096;28;20366;-83
2023/01/24 04:00:30;;;;;;;;;;;2.60;80.20;;;;;;5070884;28;19916;-82
2023/01/24 04:02:56;;;;;;;;;;;2.60;79.90;;;;;;5060705;28;19913;-83
2023/01/24 04:05:22;;;;;;;;;;;2.60;80.00;;;;;;5058914;28;19924;-84
2023/01/24 04:07:47;;;;;;;;;;;2.70;79.70;;;;;;5061008;28;20263;-83
2023/01/24 04:10:13;;;;;;;;;;;2.60;79.70;;;;;;5073699;28;19920;-83
2023/01/24 04:12:39;;;;;;;;;;;2.60;80.00;;;;;;5068843;28;19935;-83
2023/01/24 04:15:05;;;;;;;;;;;2.60;80.30;;;;;;5059017;28;20108;-84
2023/01/24 04:17:30;;;;;;;;;;;2.50;80.70;;;;;;5074942;28;19912;-83
2023/01/24 04:19:56;;;;;;;;;;;2.60;80.50;;;;;;5058743;28;19969;-83
2023/01/24 04:22:21;;;;;;;;;;;2.50;80.70;;;;;;5076259;28;20011;-84
2023/01/24 04:24:47;;;;;;;;;;;2.60;80.20;;;;;;5056332;28;19912;-83
2023/01/24 04:27:13;;;;;;;;;;;2.60;80.10;;;;;;5058076;28;19912;-84
2023/01/24 04:29:38;;;;;;;;;;;2.60;80.60;;;;;;5055785;28;19944;-82
2023/01/24 04:32:04;;;;;;;;;;;2.60;80.30;;;;;;5071488;28;19913;-82
2023/01/24 04:34:29;;;;;;;;;;;2.50;80.20;;;;;;5054497;28;19917;-83
2023/01/24 04:36:55;;;;;;;;;;;2.50;80.90;;;;;;5064170;28;19949;-83
2023/01/24 04:39:20;;;;;;;;;;;2.50;80.70;;;;;;5056537;28;19919;-82
2023/01/24 04:41:46;;;;;;;;;;;2.50;80.80;;;;;;5072525;28;19936;-83
2023/01/24 04:44:11;;;;;;;;;;;2.50;81.00;;;;;;5071245;28;19956;-82
2023/01/24 04:46:37;;;;;;;;;;;2.60;81.00;;;;;;5074348;28;19912;-84
2023/01/24 04:49:02;;;;;;;;;;;2.60;80.80;;;;;;5060697;28;19916;-84
2023/01/24 04:51:27;;;;;;;;;;;2.60;80.20;;;;;;5058932;28;19971;-83
2023/01/24 04:53:53;;;;;;;;;;;2.60;80.30;;;;;;5074174;28;19916;-84
2023/01/24 04:56:18;;;;;;;;;;;2.60;80.90;;;;;;5070624;28;20018;-83
2023/01/24 04:58:44;;;;;;;;;;;2.60;80.70;;;;;;5067768;28;19952;-84
2023/01/24 05:01:10;;;;;;;;;;;2.60;80.30;;;;;;5058340;28;19909;-83
2023/01/24 05:03:35;;;;;;;;;;;2.60;80.50;;;;;;5070640;28;19919;-84
2023/01/24 05:06:01;;;;;;;;;;;2.50;80.60;;;;;;5082095;28;19971;-82
2023/01/24 05:08:26;;;;;;;;;;;2.50;80.80;;;;;;5060914;28;20343;-83
2023/01/24 05:10:52;;;;;;;;;;;2.40;80.90;;;;;;5074279;28;19944;-84
2023/01/24 05:13:17;;;;;;;;;;;2.40;80.90;;;;;;5067176;28;19916;-83
2023/01/24 05:15:52;;;;;;;;;;;2.50;81.10;;;;;;5065845;28;20398;-84
2023/01/24 05:18:17;;;;;;;;;;;2.40;80.90;;;;;;5057883;28;19923;-83
2023/01/24 05:20:43;;;;;;;;;;;2.40;80.70;;;;;;5059423;28;19916;-83
2023/01/24 05:23:08;;;;;;;;;;;2.50;80.90;;;;;;5073537;28;20365;-83
2023/01/24 05:25:34;;;;;;;;;;;2.50;81.10;;;;;;5054970;28;19977;-83
2023/01/24 05:27:59;;;;;;;;;;;2.40;81.20;;;;;;5072257;28;19916;-83
2023/01/24 05:30:25;;;;;;;;;;;2.50;81.00;;;;;;5047803;28;20011;-84
2023/01/24 05:32:50;;;;;;;;;;;2.60;80.60;;;;;;5074467;28;19912;-83
2023/01/24 05:35:16;;;;;;;;;;;2.60;80.70;;;;;;5082048;28;19935;-83
2023/01/24 05:37:41;;;;;;;;;;;2.60;80.40;;;;;;5061708;28;19913;-83
2023/01/24 05:40:07;;;;;;;;;;;2.50;80.40;;;;;;5054405;28;19916;-84
2023/01/24 05:42:33;;;;;;;;;;;2.60;80.50;;;;;;5071387;28;19913;-86
2023/01/24 05:44:58;;;;;;;;;;;2.50;80.50;;;;;;5081435;28;19920;-86
2023/01/24 05:47:24;;;;;;;;;;;2.50;80.80;;;;;;5078907;28;19932;-85
2023/01/24 05:49:49;;;;;;;;;;;2.50;80.60;;;;;;5058076;28;19916;-84
2023/01/24 05:52:20;;;;;;;;;;;2.50;80.60;;;;;;5074486;28;19920;-83
2023/01/24 05:54:49;;;;;;;;;;;2.50;80.70;;;;;;5069942;28;20431;-82
2023/01/24 05:57:15;;;;;;;;;;;2.50;80.40;;;;;;5054296;28;20545;-81
2023/01/24 05:59:40;;;;;;;;;;;2.40;80.50;;;;;;5070950;28;19913;-82
2023/01/24 06:02:06;;;;;;;;;;;2.50;80.30;;;;;;5052511;28;19920;-83
2023/01/24 06:04:31;;;;;;;;;;;2.50;80.20;;;;;;5068376;28;19936;-82
2023/01/24 06:06:57;;;;;;;;;;;2.40;80.60;;;;;;5066888;28;19911;-82
2023/01/24 06:09:23;;;;;;;;;;;2.40;80.60;;;;;;5074258;28;19912;-82
2023/01/24 06:11:48;;;;;;;;;;;2.40;80.90;;;;;;5067836;28;19942;-82
2023/01/24 06:14:14;;;;;;;;;;;2.40;80.90;;;;;;5172135;22;19947;-77
2023/01/24 06:16:40;;;;;;;;;;;2.40;81.30;;;;;;5064499;28;19920;-77
2023/01/24 06:19:05;;;;;;;;;;;2.50;80.80;;;;;;5056577;28;20527;-78
2023/01/24 06:21:31;;;;;;;;;;;2.50;80.40;;;;;;5062547;28;19923;-77
2023/01/24 06:23:56;;;;;;;;;;;2.50;80.70;;;;;;5062775;28;19999;-76
2023/01/24 06:26:22;;;;;;;;;;;2.50;80.20;;;;;;5061310;28;20003;-76
2023/01/24 06:28:47;;;;;;;;;;;2.50;80.10;;;;;;5059392;28;19999;-77
2023/01/24 06:31:13;;;;;;;;;;;2.40;80.20;;;;;;5053905;28;19966;-77
2023/01/24 06:33:45;;;;;;;;;;;2.50;80.50;;;;;;5066768;28;19912;-77
2023/01/24 06:36:17;;;;;;;;;;;2.40;80.50;;;;;;5061026;28;20022;-77
2023/01/24 06:38:42;;;;;;;;;;;2.40;80.60;;;;;;5062525;28;19913;-79
2023/01/24 06:41:13;;;;;;;;;;;2.40;80.20;;;;;;5043198;28;20403;-78
2023/01/24 06:43:39;;;;;;;;;;;2.40;80.50;;;;;;5064190;28;19916;-78
2023/01/24 06:46:04;;;;;;;;;;;2.40;80.30;;;;;;5065580;28;19919;-77
2023/01/24 06:48:30;;;;;;;;;;;2.50;80.40;;;;;;5066444;28;20861;-77
2023/01/24 06:50:55;;;;;;;;;;;2.50;80.40;;;;;;5045370;28;19927;-78
2023/01/24 06:53:20;;;;;;;;;;;2.40;80.40;;;;;;5046309;28;19919;-77
2023/01/24 06:55:46;;;;;;;;;;;2.40;80.70;;;;;;5059653;28;19939;-77
2023/01/24 06:58:11;;;;;;;;;;;2.50;81.00;;;;;;5059923;28;19958;-77
2023/01/24 07:00:37;;;;;;;;;;;2.50;80.50;;;;;;5061087;28;19985;-77
2023/01/24 07:03:06;;;;;;;;;;;2.40;80.60;;;;;;5063271;28;20104;-79
2023/01/24 07:05:32;;;;;;;;;;;2.40;80.10;;;;;;5057931;28;19917;-77
2023/01/24 07:07:57;;;;;;;;;;;2.40;80.20;;;;;;5063688;28;20261;-78
2023/01/24 07:10:22;;;;;;;;;;;2.40;80.20;;;;;;5047309;28;19920;-77
2023/01/24 07:12:48;;;;;;;;;;;2.40;80.70;;;;;;5045266;28;20026;-77
2023/01/24 07:15:13;;;;;;;;;;;2.40;80.40;;;;;;5060446;28;19917;-77
2023/01/24 07:17:39;;;;;;;;;;;2.50;80.40;;;;;;5036769;28;20027;-78
2023/01/24 07:20:05;;;;;;;;;;;2.50;80.60;;;;;;5062903;28;19912;-78
2023/01/24 07:22:31;;;;;;;;;;;2.50;80.20;;;;;;5060286;28;21168;-78
2023/01/24 07:24:56;;;;;;;;;;;2.50;79.80;;;;;;5040702;28;20011;-77
2023/01/24 07:27:22;;;;;;;;;;;2.50;79.80;;;;;;5046018;28;19920;-77
2023/01/24 07:29:47;;;;;;;;;;;2.40;79.70;;;;;;5046856;28;19913;-77
2023/01/24 07:32:13;;;;;;;;;;;2.40;79.70;;;;;;5068132;28;19919;-78
2023/01/24 07:34:38;;;;;;;;;;;2.40;79.90;;;;;;5064529;28;19920;-77
2023/01/24 07:37:05;;;;;;;;;;;2.40;80.30;;;;;;5049076;28;19931;-77
2023/01/24 07:39:31;;;;;;;;;;;2.40;80.50;;;;;;5032429;28;19945;-79
2023/01/24 07:41:56;;;;;;;;;;;2.30;80.50;;;;;;5046070;28;19958;-77
2023/01/24 07:44:21;;;;;;;;;;;2.50;79.90;;;;;;5058275;28;19912;-76
2023/01/24 07:46:47;;;;;;;;;;;2.40;80.00;;;;;;5056259;28;19936;-78
2023/01/24 07:49:12;;;;;;;;;;;2.40;80.50;;;;;;5059763;28;19965;-78
2023/01/24 07:51:39;;;;;;;;;;;2.40;80.90;;;;;;5066422;28;19912;-76
2023/01/24 07:54:05;;;;;;;;;;;2.40;80.80;;;;;;5057935;28;20532;-76
2023/01/24 07:56:30;;;;;;;;;;;2.50;80.60;;;;;;5043597;28;19919;-77
2023/01/24 07:58:56;;;;;;;;;;;2.50;80.30;;;;;;5067043;28;19920;-77
2023/01/24 08:01:22;;;;;;;;;;;2.50;79.50;;;;;;5062605;28;19920;-78
2023/01/24 08:03:49;;;;;;;;;;;2.50;79.30;;;;;;5073000;28;19940;-77
2023/01/24 08:06:14;;;;;;;;;;;2.40;80.20;;;;;;5060617;28;19920;-77
2023/01/24 08:08:40;;;;;;;;;;;2.40;80.20;;;;;;5061479;28;19986;-77
2023/01/24 08:11:05;;;;;;;;;;;2.40;79.90;;;;;;5049620;28;19917;-78
2023/01/24 08:13:31;;;;;;;;;;;2.40;79.90;;;;;;5070518;28;19916;-77
2023/01/24 08:15:56;;;;;;;;;;;2.40;80.30;;;;;;5069981;28;20283;-78
2023/01/24 08:18:21;;;;;;;;;;;2.40;80.40;;;;;;5053902;28;19936;-78
2023/01/24 08:20:48;;;;;;;;;;;2.50;80.10;;;;;;5056170;28;19966;-78
2023/01/24 08:23:14;;;;;;;;;;;2.50;79.50;;;;;;5072378;28;20527;-77
2023/01/24 08:25:39;;;;;;;;;;;2.40;79.80;;;;;;5064476;28;19923;-77
2023/01/24 08:28:04;;;;;;;;;;;2.40;80.10;;;;;;5071038;28;19924;-77
2023/01/24 08:30:30;;;;;;;;;;;2.40;80.20;;;;;;5058280;28;20039;-77
2023/01/24 08:33:02;;;;;;;;;;;2.40;79.30;;;;;;5066618;28;19982;-78
2023/01/24 08:35:28;;;;;;;;;;;2.40;80.00;;;;;;5043499;28;19927;-78
2023/01/24 08:37:54;;;;;;;;;;;2.40;80.10;;;;;;5068876;28;19958;-77
2023/01/24 08:40:19;;;;;;;;;;;2.40;80.20;;;;;;5065448;28;19948;-76
2023/01/24 08:42:44;;;;;;;;;;;2.40;79.30;;;;;;5063789;28;19920;-76
2023/01/24 08:45:10;;;;;;;;;;;2.50;80.30;;;;;;5064587;28;19913;-77
2023/01/24 08:47:35;;;;;;;;;;;2.50;80.00;;;;;;5060038;28;19970;-77
2023/01/24 08:50:01;;;;;;;;;;;2.60;80.00;;;;;;5046962;28;20299;-77
2023/01/24 08:52:26;;;;;;;;;;;2.60;79.80;;;;;;5064406;28;19951;-76
2023/01/24 08:54:52;;;;;;;;;;;2.60;79.40;;;;;;5068652;28;20352;-76
2023/01/24 08:57:17;;;;;;;;;;;2.60;79.30;;;;;;5065227;28;19979;-76
2023/01/24 08:59:43;;;;;;;;;;;2.60;79.50;;;;;;5042231;28;19971;-77
2023/01/24 09:02:11;;;;;;;;;;;2.60;79.40;;;;;;5062422;28;19913;-77
2023/01/24 09:04:36;;;;;;;;;;;2.70;79.60;;;;;;5058770;28;19917;-76
2023/01/24 09:07:02;;;;;;;;;;;2.80;79.00;;;;;;5046839;28;19919;-77
2023/01/24 09:09:27;;;;;;;;;;;2.80;79.20;;;;;;5060971;28;19924;-76
2023/01/24 09:11:53;;;;;;;;;;;2.80;79.50;;;;;;5067138;28;20584;-76
2023/01/24 09:14:18;;;;;;;;;;;2.90;79.60;;;;;;5057151;28;19946;-77
2023/01/24 09:16:44;;;;;;;;;;;3.00;78.40;;;;;;5062568;28;20380;-77
2023/01/24 09:19:11;;;;;;;;;;;2.90;78.50;;;;;;5054950;28;19917;-78
2023/01/24 09:21:36;;;;;;;;;;;2.80;78.10;;;;;;5063149;28;19994;-76
2023/01/24 09:24:01;;;;;;;;;;;2.80;78.50;;;;;;5045331;28;20346;-76
2023/01/24 09:26:27;;;;;;;;;;;2.80;79.00;;;;;;5063682;28;20164;-76
2023/01/24 09:28:52;;;;;;;;;;;2.80;78.90;;;;;;5061917;28;20288;-76
2023/01/24 09:31:18;;;;;;;;;;;2.80;79.30;;;;;;5041954;28;19966;-76
2023/01/24 09:33:43;;;;;;;;;;;2.90;78.30;;;;;;5060746;28;19921;-77
2023/01/24 09:36:09;;;;;;;;;;;3.00;78.60;;;;;;5062327;28;19916;-77
2023/01/24 09:38:34;;;;;;;;;;;2.90;78.90;;;;;;5042973;28;20283;-77
2023/01/24 09:41:07;;;;;;;;;;;2.90;79.30;;;;;;5066703;28;19974;-77
2023/01/24 09:43:40;;;;;;;;;;;2.90;79.10;;;;;;5065332;28;19916;-78
2023/01/24 09:46:15;;;;;;;;;;;2.90;79.10;;;;;;5055814;28;19958;-78
2023/01/24 09:48:41;;;;;;;;;;;2.90;78.90;;;;;;5052213;28;19916;-77
2023/01/24 09:51:13;;;;;;;;;;;3.00;78.60;;;;;;5070493;28;20003;-77
2023/01/24 09:53:43;;;;;;;;;;;2.90;78.10;;;;;;5045233;28;20418;-77
2023/01/24 09:56:26;;;;;;;;;;;2.90;78.10;;;;;;5069476;28;20502;-76
2023/01/24 09:59:09;;;;;;;;;;;2.90;78.10;;;;;;5058360;28;20007;-77
2023/01/24 10:01:34;;;;;;;;;;;2.80;78.20;;;;;;5064054;28;20510;-77
2023/01/24 10:04:00;;;;;;;;;;;2.90;78.40;;;;;;5040552;28;19923;-76
2023/01/24 10:06:27;;;;;;;;;;;3.10;77.90;;;;;;5063955;28;19912;-76
2023/01/24 10:09:12;;;;;;;;;;;3.10;78.00;;;;;;5061609;28;19912;-77
2023/01/24 10:11:56;;;;;;;;;;;2.90;77.90;;;;;;5065549;28;19912;-75
2023/01/24 10:14:22;;;;;;;;;;;2.90;78.30;;;;;;5062511;28;19923;-76
2023/01/24 10:17:07;;;;;;;;;;;2.70;78.50;;;;;;5058166;28;19923;-77
2023/01/24 10:19:39;;;;;;;;;;;2.60;78.70;;;;;;5060792;28;19962;-76
2023/01/24 10:22:17;;;;;;;;;;;2.60;79.10;;;;;;5044223;28;19919;-76
2023/01/24 10:24:45;;;;;;;;;;;2.60;79.60;;;;;;5058924;28;19917;-76
2023/01/24 10:27:25;;;;;;;;;;;2.80;79.90;;;;;;5065297;28;19966;-76
2023/01/24 10:29:55;;;;;;;;;;;3.00;79.40;;;;;;5058877;28;19913;-76
2023/01/24 10:32:26;;;;;;;;;;;3.00;78.90;;;;;;5061068;28;19966;-76
2023/01/24 10:34:57;;;;;;;;;;;3.00;78.90;;;;;;5042825;28;19973;-76
2023/01/24 10:37:27;;;;;;;;;;;3.00;78.20;;;;;;5063958;28;19913;-77
2023/01/24 10:39:52;;;;;;;;;;;3.10;78.00;;;;;;5052545;28;19908;-77
2023/01/24 10:42:21;;;;;;;;;;;3.00;77.90;;;;;;5044196;28;20351;-77
2023/01/24 10:44:47;;;;;;;;;;;3.00;78.40;;;;;;5041147;28;19916;-76
2023/01/24 10:47:31;;;;;;;;;;;3.20;77.90;;;;;;5041037;28;19926;-77
2023/01/24 10:49:58;;;;;;;;;;;3.30;76.90;;;;;;5040761;28;19912;-77
2023/01/24 10:52:24;;;;;;;;;;;3.20;77.30;;;;;;5058255;28;20250;-76
2023/01/24 10:54:52;;;;;;;;;;;3.10;77.70;;;;;;5062961;28;19975;-76
2023/01/24 10:57:23;;;;;;;;;;;3.30;77.60;;;;;;5055708;28;20398;-76
2023/01/24 10:59:48;;;;;;;;;;;3.10;77.20;;;;;;5059584;28;19922;-76
2023/01/24 11:02:24;;;;;;;;;;;3.10;78.50;;;;;;5061486;28;19999;-77
2023/01/24 11:04:52;;;;;;;;;;;3.10;79.00;;;;;;5064324;28;20392;-77
2023/01/24 11:07:44;;;;;;;;;;;3.10;78.80;;;;;;5062824;28;19952;-77
2023/01/24 11:10:21;;;;;;;;;;;3.20;79.00;;;;;;5028676;28;21014;-77
2023/01/24 11:12:47;;;;;;;;;;;3.30;78.40;;;;;;5069510;28;19908;-77
2023/01/24 11:15:16;;;;;;;;;;;3.30;78.60;;;;;;5065789;28;19917;-76
2023/01/24 11:17:42;;;;;;;;;;;3.30;78.10;;;;;;5061206;28;19930;-76
2023/01/24 11:20:22;;;;;;;;;;;3.30;78.30;;;;;;5056876;28;19920;-78
2023/01/24 11:22:51;;;;;;;;;;;3.40;78.20;;;;;;5044167;28;19924;-77
2023/01/24 11:25:16;;;;;;;;;;;3.50;78.40;;;;;;5044472;28;19943;-77
2023/01/24 11:27:49;;;;;;;;;;;3.40;78.00;;;;;;5061441;28;19971;-76
2023/01/24 11:30:21;;;;;;;;;;;3.20;77.40;;;;;;5056471;28;19916;-76
2023/01/24 11:32:46;;;;;;;;;;;3.20;78.50;;;;;;5038367;28;19909;-76
2023/01/24 11:35:24;;;;;;;;;;;3.00;78.30;;;;;;5039796;28;19927;-77
2023/01/24 11:37:52;;;;;;;;;;;3.10;78.50;;;;;;5057758;28;19927;-77
2023/01/24 11:40:28;;;;;;;;;;;3.20;77.40;;;;;;5066625;28;20275;-77
2023/01/24 11:43:14;;;;;;;;;;;3.20;78.60;;;;;;5057100;28;19920;-76
2023/01/24 11:46:02;;;;;;;;;;;3.10;79.10;;;;;;5052083;28;19917;-78
2023/01/24 11:48:46;;;;;;;;;;;3.10;78.80;;;;;;5068795;28;19936;-77
2023/01/24 11:51:12;;;;;;;;;;;3.10;79.20;;;;;;5063399;28;19916;-76
2023/01/24 11:53:40;;;;;;;;;;;3.20;79.20;;;;;;5042774;28;19921;-77
2023/01/24 11:56:23;;;;;;;;;;;3.30;78.50;;;;;;5060876;28;20329;-77
2023/01/24 11:58:51;;;;;;;;;;;3.30;78.20;;;;;;5061832;28;19920;-78
2023/01/24 12:01:25;;;;;;;;;;;3.40;78.20;;;;;;5059549;28;19920;-77
2023/01/24 12:04:26;;;;;;;;;;;3.40;78.30;;;;;;5065373;28;19939;-77
2023/01/24 12:07:10;;;;;;;;;;;3.40;78.10;;;;;;4959545;28;19914;-78
2023/01/24 12:09:54;;;;;;;;;;;3.50;77.80;;;;;;5055050;28;19973;-78
2023/01/24 12:15:07;;;;;;;;;;;3.50;77.80;;;;;;5087280;22;19929;-88
2023/01/24 12:17:39;;;;;;;;;;;3.30;77.40;;;;;;5032084;28;19924;-87
2023/01/24 12:20:28;;;;;;;;;;;3.20;78.10;;;;;;5036763;28;19921;-92
2023/01/24 12:23:02;;;;;;;;;;;3.20;78.30;;;;;;5045513;28;19913;-88
2023/01/24 12:25:42;;;;;;;;;;;3.30;77.40;;;;;;5019062;28;19913;-89
2023/01/24 12:28:12;;;;;;;;;;;3.20;77.70;;;;;;5033552;28;20833;-88
2023/01/24 12:30:39;;;;;;;;;;;3.30;77.40;;;;;;5018630;28;19924;-88
2023/01/24 12:33:05;;;;;;;;;;;3.20;77.10;;;;;;5019902;28;20321;-90
2023/01/24 12:35:45;;;;;;;;;;;3.50;76.90;;;;;;5015122;28;19921;-88
2023/01/24 12:38:35;;;;;;;;;;;3.50;76.60;;;;;;5023777;28;19913;-88
2023/01/24 12:41:20;;;;;;;;;;;3.50;76.70;;;;;;5030437;28;19917;-88
2023/01/24 12:43:45;;;;;;;;;;;3.40;76.70;;;;;;5015964;28;19913;-84
2023/01/24 12:46:11;;;;;;;;;;;3.30;76.80;;;;;;5034365;28;19913;-85
2023/01/24 12:49:00;;;;;;;;;;;3.30;77.90;;;;;;5025650;28;19921;-89
2023/01/24 12:51:32;;;;;;;;;;;3.30;77.90;;;;;;5023023;28;21349;-83
2023/01/24 12:53:57;;;;;;;;;;;3.30;77.70;;;;;;5006543;28;20007;-83
2023/01/24 12:57:04;;;;;;;;;;;;;;;;;;;;;
2023/01/24 12:59:40;;;;;;;;;;;3.20;77.60;;;;;;5028849;28;19952;-84
2023/01/24 13:02:21;;;;;;;;;;;3.00;77.90;;;;;;5021517;28;19920;-83
2023/01/24 13:04:47;;;;;;;;;;;3.00;77.80;;;;;;5041479;28;19980;-84
2023/01/24 13:07:35;;;;;;;;;;;3.10;77.40;;;;;;5019454;28;19976;-83
2023/01/24 13:10:10;;;;;;;;;;;3.00;77.20;;;;;;5037597;28;19935;-84
2023/01/24 13:12:35;;;;;;;;;;;2.90;78.40;;;;;;5032963;28;20448;-84
2023/01/24 13:15:30;;;;;;;;;;;3.00;79.30;;;;;;5032423;28;19926;-84
2023/01/24 13:18:05;;;;;;;;;;;3.00;79.10;;;;;;5024573;28;19944;-84
2023/01/24 13:20:39;;;;;;;;;;;3.30;78.90;;;;;;5034739;28;19960;-84
2023/01/24 13:23:23;;;;;;;;;;;3.50;78.20;;;;;;5012583;28;20605;-84
2023/01/24 13:26:06;;;;;;;;;;;3.60;77.90;;;;;;5027988;28;19920;-85
2023/01/24 13:28:41;;;;;;;;;;;3.80;77.20;;;;;;5045592;28;19917;-84
2023/01/24 13:31:07;;;;;;;;;;;3.90;76.50;;;;;;5040813;28;19959;-83
2023/01/24 13:33:46;;;;;;;;;;;4.00;76.60;;;;;;5027677;28;20399;-84
2023/01/24 13:36:15;;;;;;;;;;;3.90;76.50;;;;;;5016120;28;19924;-83
2023/01/24 13:38:41;;;;;;;;;;;3.90;76.30;;;;;;5034841;28;19916;-84
2023/01/24 13:41:12;;;;;;;;;;;4.00;75.60;;;;;;5033025;28;19923;-84
2023/01/24 13:43:47;;;;;;;;;;;3.70;76.00;;;;;;5010836;28;19920;-85
2023/01/24 13:46:13;;;;;;;;;;;3.30;76.90;;;;;;5026666;28;19929;-83
2023/01/24 13:48:44;;;;;;;;;;;3.10;76.90;;;;;;5033113;28;19995;-84
2023/01/24 13:51:31;;;;;;;;;;;3.00;77.90;;;;;;5015073;28;19949;-84
2023/01/24 13:54:04;;;;;;;;;;;3.10;78.00;;;;;;5029200;28;19913;-84
2023/01/24 13:56:30;;;;;;;;;;;3.30;77.00;;;;;;5030129;28;19979;-84
2023/01/24 13:59:30;;;;;;;;;;;3.30;76.50;;;;;;5035737;28;20440;-84
2023/01/24 14:01:55;;;;;;;;;;;3.00;77.40;;;;;;5008788;28;19921;-84
2023/01/24 14:04:37;;;;;;;;;;;2.90;77.80;;;;;;5029529;28;19920;-84
2023/01/24 14:07:51;;;;;;;;;;;;;;;;;;;;;
2023/01/24 14:10:34;;;;;;;;;;;3.10;79.00;;;;;;5029807;28;20397;-84
2023/01/24 14:13:00;;;;;;;;;;;3.10;77.60;;;;;;5016842;28;19913;-84
2023/01/24 14:15:29;;;;;;;;;;;3.00;77.50;;;;;;5031647;28;20252;-84
2023/01/24 14:17:55;;;;;;;;;;;2.90;78.00;;;;;;5026966;28;19913;-84
2023/01/24 14:20:33;;;;;;;;;;;2.90;78.20;;;;;;5028746;28;20031;-83
2023/01/24 14:23:00;;;;;;;;;;;2.90;77.70;;;;;;5016126;28;19928;-84
2023/01/24 14:25:34;;;;;;;;;;;2.90;77.40;;;;;;5015643;28;19937;-83
2023/01/24 14:28:15;;;;;;;;;;;2.90;77.50;;;;;;5027891;28;19962;-84
2023/01/24 14:30:49;;;;;;;;;;;2.80;77.60;;;;;;5025260;28;19929;-85
2023/01/24 14:33:17;;;;;;;;;;;3.00;78.40;;;;;;5025762;28;19921;-87
2023/01/24 14:36:21;;;;;;;;;;;3.20;77.00;;;;;;5013192;28;20525;-90
2023/01/24 14:38:47;;;;;;;;;;;3.30;77.20;;;;;;4975080;28;20049;-87
2023/01/24 14:41:19;;;;;;;;;;;3.20;76.80;;;;;;4992054;28;19953;-87
2023/01/24 14:43:44;;;;;;;;;;;3.20;76.20;;;;;;5007061;28;19917;-86
2023/01/24 14:46:19;;;;;;;;;;;3.00;76.50;;;;;;5027309;28;19932;-85
2023/01/24 14:48:44;;;;;;;;;;;3.00;77.10;;;;;;5006171;28;19914;-84
2023/01/24 14:51:14;;;;;;;;;;;2.90;77.40;;;;;;5027794;28;19913;-86
2023/01/24 14:53:45;;;;;;;;;;;2.80;78.30;;;;;;5005913;28;20016;-88
2023/01/24 14:56:13;;;;;;;;;;;2.80;78.20;;;;;;5014395;28;20371;-85
2023/01/24 14:58:38;;;;;;;;;;;2.80;78.20;;;;;;5028077;28;19940;-83
2023/01/24 15:01:20;;;;;;;;;;;2.80;78.50;;;;;;5029562;28;20394;-84
2023/01/24 15:03:46;;;;;;;;;;;2.90;78.50;;;;;;5024628;28;19920;-85
2023/01/24 15:06:16;;;;;;;;;;;2.80;78.80;;;;;;5019619;28;19913;-85
2023/01/24 15:08:41;;;;;;;;;;;2.90;78.90;;;;;;5033135;28;20478;-84
2023/01/24 15:11:16;;;;;;;;;;;3.00;78.30;;;;;;5025138;28;19928;-85
2023/01/24 15:13:43;;;;;;;;;;;3.00;77.90;;;;;;5028445;28;19925;-86
2023/01/24 15:16:16;;;;;;;;;;;3.10;77.70;;;;;;5024679;28;19951;-86
2023/01/24 15:21:45;;;;;;;;;;;2.80;77.60;;;;;;5030527;28;19940;-87
2023/01/24 15:24:30;;;;;;;;;;;2.70;78.80;;;;;;5023022;28;19921;-86